createdAt,value
2022-08-14T00:04:56.316Z,101246.06
2022-08-14T00:10:49.189Z,101245.91
2022-08-14T00:15:23.674Z,101237.78
2022-08-14T00:20:30.771Z,101233.94
2022-08-14T00:25:42.391Z,101229.38
2022-08-14T00:30:45.310Z,101221.75
2022-08-14T00:36:35.580Z,101225.56
2022-08-14T00:41:11.054Z,101217.56
2022-08-14T00:46:23.417Z,101223.28
2022-08-14T00:51:38.227Z,101200.25
2022-08-14T00:56:40.392Z,101206.34
2022-08-14T01:01:42.011Z,101191.31
2022-08-14T01:06:43.896Z,101196.78
2022-08-14T01:11:45.550Z,101178.88
2022-08-14T01:17:04.824Z,101175.72
2022-08-14T01:22:13.249Z,101177.94
2022-08-14T01:27:24.503Z,101170.91
2022-08-14T01:32:26.580Z,101166.41
2022-08-14T01:37:31.683Z,101152.38
2022-08-14T01:42:36.101Z,101142.81
2022-08-14T01:47:38.869Z,101141.88
2022-08-14T01:52:58.993Z,101132.09
2022-08-14T01:58:18.748Z,101129.53
2022-08-14T02:03:30.809Z,101123.59
2022-08-14T02:08:34.639Z,101113.56
2022-08-14T02:13:37.326Z,101114.81
2022-08-14T02:18:39.955Z,101112.53
2022-08-14T02:23:42.946Z,101100.44
2022-08-14T02:28:57.160Z,101100.34
2022-08-14T02:34:03.452Z,101097.78
2022-08-14T02:39:16.276Z,101088.53
2022-08-14T02:44:29.418Z,101095.22
2022-08-14T02:49:34.325Z,101095.63
2022-08-14T02:54:36.164Z,101091.38
2022-08-14T02:59:39.273Z,101100.47
2022-08-14T03:04:44.750Z,101081.84
2022-08-14T03:10:28.162Z,101088.75
2022-08-14T03:15:14.340Z,101086.59
2022-08-14T03:20:18.583Z,101081.25
2022-08-14T03:25:23.835Z,101080.66
2022-08-14T03:30:38.932Z,101077.41
2022-08-14T03:35:59.780Z,101082.75
2022-08-14T03:41:03.634Z,101079.38
2022-08-14T03:46:10.193Z,101076.69
2022-08-14T03:51:28.655Z,101066.44
2022-08-14T03:56:30.790Z,101070.78
2022-08-14T04:01:41.503Z,101075.50
2022-08-14T04:06:48.521Z,101069.09
2022-08-14T04:11:50.783Z,101064.47
2022-08-14T04:16:52.381Z,101069.53
2022-08-14T04:22:02.154Z,101069.66
2022-08-14T04:27:09.497Z,101060.97
2022-08-14T04:33:10.369Z,101061.19
2022-08-14T04:37:53.695Z,101059.38
2022-08-14T04:43:17.280Z,101049.81
2022-08-14T04:48:39.859Z,101053.44
2022-08-14T04:53:45.357Z,101050.66
2022-08-14T04:58:47.891Z,101046.06
2022-08-14T05:03:49.637Z,101040.75
2022-08-14T05:08:57.146Z,101040.75
2022-08-14T05:14:16.816Z,101046.53
2022-08-14T05:19:29.095Z,101024.31
2022-08-14T05:24:31.279Z,101023.56
2022-08-14T05:29:34.190Z,101022.72
2022-08-14T05:34:36.838Z,101018.13
2022-08-14T05:39:39.612Z,101017.19
2022-08-14T05:44:42.454Z,101019.00
2022-08-14T05:49:48.291Z,101013.81
2022-08-14T05:54:50.101Z,101000.50
2022-08-14T05:59:51.593Z,100992.41
2022-08-14T06:04:54.622Z,101005.69
2022-08-14T06:10:03.970Z,101005.91
2022-08-14T06:15:08.231Z,100993.69
2022-08-14T06:20:11.180Z,100996.41
2022-08-14T06:25:16.124Z,101005.22
2022-08-14T06:30:30.372Z,101008.59
2022-08-14T06:35:47.245Z,100997.47
2022-08-14T06:40:50.049Z,101003.06
2022-08-14T06:45:54.383Z,100997.34
2022-08-14T06:50:58.042Z,100997.25
2022-08-14T06:56:02.179Z,100997.59
2022-08-14T07:01:27.023Z,100995.97
2022-08-14T07:06:46.695Z,100995.97
2022-08-14T07:11:49.673Z,100992.63
2022-08-14T07:16:51.186Z,101002.28
2022-08-14T07:21:52.696Z,100995.22
2022-08-14T07:26:54.249Z,100989.06
2022-08-14T07:31:55.766Z,100999.38
2022-08-14T07:37:00.843Z,101002.16
2022-08-14T07:42:02.938Z,100995.75
2022-08-14T07:47:05.235Z,100989.84
2022-08-14T07:52:07.342Z,100985.00
2022-08-14T07:57:12.610Z,100980.41
2022-08-14T08:02:27.835Z,100973.44
2022-08-14T08:07:31.935Z,100988.34
2022-08-14T08:12:34.999Z,100989.34
2022-08-14T08:17:38.482Z,100971.88
2022-08-14T08:22:43.406Z,100981.84
2022-08-14T08:28:22.031Z,100971.41
2022-08-14T08:33:37.124Z,100973.44
2022-08-14T08:39:18.585Z,100953.81
2022-08-14T08:44:05.609Z,100953.38
2022-08-14T08:49:07.182Z,100942.69
2022-08-14T08:54:18.432Z,100946.69
2022-08-14T08:59:30.958Z,100927.97
2022-08-14T09:04:45.361Z,100925.34
2022-08-14T09:09:59.090Z,100930.19
2022-08-14T09:15:08.987Z,100933.28
2022-08-14T09:20:14.077Z,100930.69
2022-08-14T09:26:00.879Z,100922.91
2022-08-14T09:30:54.191Z,100929.34
2022-08-14T09:36:26.196Z,100936.41
2022-08-14T09:42:20.314Z,100930.81
2022-08-14T09:47:05.024Z,100912.41
2022-08-14T09:52:32.850Z,100900.97
2022-08-14T09:57:37.984Z,100891.81
2022-08-14T10:02:46.155Z,100893.25
2022-08-14T10:07:50.895Z,100885.97
2022-08-14T10:12:58.385Z,100885.94
2022-08-14T10:18:08.075Z,100889.78
2022-08-14T10:23:15.840Z,100864.28
2022-08-14T10:29:03.461Z,100853.34
2022-08-14T10:33:41.737Z,100856.91
2022-08-14T10:38:43.320Z,100846.78
2022-08-14T10:44:21.333Z,100843.06
2022-08-14T10:49:26.533Z,100829.78
2022-08-14T10:54:40.017Z,100837.38
2022-08-14T10:59:47.916Z,100835.78
2022-08-14T11:05:07.757Z,100835.00
2022-08-14T11:10:13.815Z,100818.75
2022-08-14T11:15:22.457Z,100814.22
2022-08-14T11:20:26.763Z,100799.00
2022-08-14T11:25:41.335Z,100790.56
2022-08-14T11:30:53.881Z,100808.00
2022-08-14T11:36:01.757Z,100805.97
2022-08-14T11:41:03.488Z,100795.44
2022-08-14T11:46:06.557Z,100782.03
2022-08-14T11:51:30.711Z,100784.53
2022-08-14T11:56:37.401Z,100786.91
2022-08-14T12:01:41.217Z,100777.94
2022-08-14T12:06:53.986Z,100776.44
2022-08-14T12:11:56.141Z,100786.66
2022-08-14T12:17:00.469Z,100770.63
2022-08-14T12:22:03.838Z,100769.75
2022-08-14T12:27:08.410Z,100768.16
2022-08-14T12:32:12.765Z,100758.22
2022-08-14T12:37:15.270Z,100767.53
2022-08-14T12:42:27.346Z,100751.06
2022-08-14T12:47:37.963Z,100752.84
2022-08-14T12:52:53.963Z,100742.19
2022-08-14T12:58:29.241Z,100723.53
2022-08-14T13:03:30.377Z,100705.31
2022-08-14T13:08:34.350Z,100710.72
2022-08-14T13:13:37.765Z,100694.97
2022-08-14T13:18:46.856Z,100693.78
2022-08-14T13:23:49.346Z,100682.28
2022-08-14T13:29:02.162Z,100674.66
2022-08-14T13:34:06.264Z,100682.09
2022-08-14T13:39:08.905Z,100657.34
2022-08-14T13:44:15.424Z,100668.06
2022-08-14T13:49:24.410Z,100664.38
2022-08-14T13:54:32.615Z,100657.38
2022-08-14T13:59:37.901Z,100650.59
2022-08-14T14:04:49.409Z,100643.44
2022-08-14T14:09:55.188Z,100648.19
2022-08-14T14:14:59.206Z,100642.41
2022-08-14T14:20:15.210Z,100627.25
2022-08-14T14:25:43.224Z,100639.66
2022-08-14T14:30:53.098Z,100628.94
2022-08-14T14:35:56.724Z,100628.31
2022-08-14T14:41:01.471Z,100625.13
2022-08-14T14:46:08.597Z,100621.16
2022-08-14T14:51:13.054Z,100612.09
2022-08-14T14:56:47.298Z,100618.13
2022-08-14T15:01:38.597Z,100612.88
2022-08-14T15:06:47.625Z,100609.91
2022-08-14T15:11:50.247Z,100606.91
2022-08-14T15:16:53.260Z,100595.97
2022-08-14T15:22:00.994Z,100592.09
2022-08-14T15:27:03.156Z,100595.50
2022-08-14T15:32:09.331Z,100574.91
2022-08-14T15:37:12.995Z,100574.25
2022-08-14T15:42:18.813Z,100580.91
2022-08-14T15:47:28.870Z,100571.78
2022-08-14T15:52:44.837Z,100558.59
2022-08-14T15:58:01.812Z,100566.47
2022-08-14T16:03:08.629Z,100557.34
2022-08-14T16:08:26.871Z,100563.03
2022-08-14T16:13:41.838Z,100552.47
2022-08-14T16:18:44.198Z,100550.63
2022-08-14T16:23:47.768Z,100552.41
2022-08-14T16:29:06.460Z,100548.97
2022-08-14T16:34:43.727Z,100545.31
2022-08-14T16:39:31.286Z,100535.88
2022-08-14T16:44:44.113Z,100535.91
2022-08-14T16:50:04.325Z,100515.00
2022-08-14T16:55:09.111Z,100515.31
2022-08-14T17:00:28.310Z,100506.63
2022-08-14T17:05:37.197Z,100490.22
2022-08-14T17:10:47.976Z,100517.03
2022-08-14T17:16:25.297Z,100498.34
2022-08-14T17:21:37.248Z,100479.09
2022-08-14T17:26:45.624Z,100471.34
2022-08-14T17:31:58.876Z,100479.53
2022-08-14T17:37:03.579Z,100467.06
2022-08-14T17:42:13.185Z,100482.28
2022-08-14T17:47:18.390Z,100463.06
2022-08-14T17:52:36.034Z,100472.06
2022-08-14T17:57:42.957Z,100457.41
2022-08-14T18:02:50.950Z,100464.75
2022-08-14T18:08:32.410Z,100469.31
2022-08-14T18:13:16.339Z,100478.41
2022-08-14T18:18:18.117Z,100471.25
2022-08-14T18:23:21.524Z,100488.66
2022-08-14T18:28:51.270Z,100465.28
2022-08-14T18:33:54.488Z,100462.78
2022-08-14T18:39:23.706Z,100474.28
2022-08-14T18:44:50.049Z,100473.22
2022-08-14T18:49:57.993Z,100480.88
2022-08-14T18:55:21.380Z,100455.19
2022-08-14T19:00:32.976Z,100479.28
2022-08-14T19:05:37.969Z,100473.13
2022-08-14T19:10:40.789Z,100460.59
2022-08-14T19:15:56.425Z,100486.88
2022-08-14T19:21:03.683Z,100483.00
2022-08-14T19:26:36.374Z,100461.78
2022-08-14T19:31:55.227Z,100474.63
2022-08-14T19:37:06.164Z,100457.31
2022-08-14T19:42:14.299Z,100462.38
2022-08-14T19:47:41.207Z,100458.16
2022-08-14T19:52:43.332Z,100452.53
2022-08-14T19:57:58.852Z,100448.38
2022-08-14T20:03:12.011Z,100439.72
2022-08-14T20:09:05.547Z,100456.47
2022-08-14T20:13:38.723Z,100450.31
2022-08-14T20:18:51.806Z,100441.69
2022-08-14T20:24:30.915Z,100455.09
2022-08-14T20:29:37.842Z,100441.41
2022-08-14T20:34:51.305Z,100438.59
2022-08-14T20:39:54.212Z,100438.31
2022-08-14T20:45:18.836Z,100429.63
2022-08-14T20:50:28.702Z,100416.75
2022-08-14T20:55:37.214Z,100452.56
2022-08-14T21:00:52.379Z,100409.19
2022-08-14T21:05:57.163Z,100420.38
2022-08-14T21:11:00.495Z,100445.28
2022-08-14T21:16:03.616Z,100414.78
2022-08-14T21:21:08.187Z,100427.34
2022-08-14T21:26:10.695Z,100422.03
2022-08-14T21:31:12.366Z,100424.22
2022-08-14T21:36:21.953Z,100416.13
2022-08-14T21:41:41.452Z,100413.88
2022-08-14T21:46:51.410Z,100411.09
2022-08-14T21:52:48.848Z,100418.38
2022-08-14T21:58:03.879Z,100416.41
2022-08-14T22:02:43.490Z,100399.06
2022-08-14T22:07:54.242Z,100401.84
2022-08-14T22:13:00.387Z,100400.19
2022-08-14T22:18:05.675Z,100386.50
2022-08-14T22:23:10.646Z,100412.19
2022-08-14T22:28:19.327Z,100398.75
2022-08-14T22:33:20.868Z,100379.41
2022-08-14T22:38:37.572Z,100375.78
2022-08-14T22:43:40.965Z,100397.84
2022-08-14T22:48:45.466Z,100381.91
2022-08-14T22:53:52.328Z,100382.19
2022-08-14T22:58:57.388Z,100376.06
2022-08-14T23:03:59.309Z,100356.47
2022-08-14T23:09:35.100Z,100361.75
2022-08-14T23:14:26.751Z,100376.25
2022-08-14T23:19:34.600Z,100349.38
2022-08-14T23:24:41.611Z,100349.59
2022-08-14T23:29:44.403Z,100325.75
2022-08-14T23:34:48.244Z,100329.66
2022-08-14T23:39:53.325Z,100333.78
2022-08-14T23:44:55.635Z,100317.50
2022-08-14T23:50:03.397Z,100341.47
2022-08-14T23:55:11.514Z,100329.44
